Time;durP1;ratioP1;P1;durP2;ratioP2;P2;SDS_P1;SDS_P2;PMS_P1;PMS_P2;Temp;Humidity;BMP_temperature;BMP_pressure;BME280_temperature;BME280_humidity;BME280_pressure;Samples;Min_cycle;Max_cycle;Signal;HPM_P1;HPM_P2
2021/05/09 00:01:01;;;;;;;15.72;11.55;;;;;;;2.11;73.43;95108.61;1809416;78;21188;-51
2021/05/09 00:03:31;;;;;;;18.10;11.60;;;;;;;2.03;73.25;95108.37;1809382;78;21117;-51
2021/05/09 00:06:01;;;;;;;24.02;14.30;;;;;;;1.96;73.27;95113.80;1809360;79;21149;-51
2021/05/09 00:08:29;;;;;;;17.20;12.82;;;;;;;1.89;73.37;95110.47;1809417;79;21192;-52
2021/05/09 00:10:57;;;;;;;18.90;13.68;;;;;;;1.85;73.58;95117.04;1809542;78;21089;-51
2021/05/09 00:13:25;;;;;;;17.15;13.58;;;;;;;1.84;73.77;95118.20;1809560;78;21136;-52
2021/05/09 00:15:53;;;;;;;17.98;11.55;;;;;;;1.87;73.94;95121.50;1809483;79;21089;-50
2021/05/09 00:18:21;;;;;;;18.42;12.70;;;;;;;1.93;74.10;95123.47;1807244;79;21149;-50
2021/05/09 00:20:50;;;;;;;22.40;12.20;;;;;;;1.97;73.81;95120.17;1806455;79;21157;-50
2021/05/09 00:23:18;;;;;;;18.50;11.48;;;;;;;1.99;73.68;95119.80;1806430;79;21062;-50
2021/05/09 00:25:46;;;;;;;18.67;11.85;;;;;;;2.01;73.66;95120.20;1806460;78;21259;-51
2021/05/09 00:28:14;;;;;;;15.58;11.10;;;;;;;2.01;73.50;95131.84;1806398;79;21089;-50
2021/05/09 00:30:41;;;;;;;18.10;11.97;;;;;;;1.98;73.40;95125.03;1806441;79;21109;-50
2021/05/09 00:33:09;;;;;;;22.65;11.88;;;;;;;1.97;73.46;95134.33;1806396;79;21153;-50
2021/05/09 00:35:37;;;;;;;18.65;12.55;;;;;;;1.95;73.47;95131.23;1806439;79;21478;-51
2021/05/09 00:38:05;;;;;;;16.30;11.33;;;;;;;1.92;73.81;95133.36;1806430;79;21559;-51
2021/05/09 00:40:33;;;;;;;14.90;10.82;;;;;;;1.90;73.87;95136.44;1806401;78;21070;-51
2021/05/09 00:43:01;;;;;;;15.00;10.05;;;;;;;1.86;73.75;95140.28;1806406;79;21108;-50
2021/05/09 00:45:29;;;;;;;12.07;9.28;;;;;;;1.79;73.63;95132.14;1806387;79;21149;-52
2021/05/09 00:47:57;;;;;;;11.45;8.15;;;;;;;1.70;73.74;95133.05;1806487;79;21097;-52
2021/05/09 00:50:25;;;;;;;11.45;8.75;;;;;;;1.65;73.95;95139.45;1806366;78;21349;-51
2021/05/09 00:52:54;;;;;;;10.78;7.85;;;;;;;1.63;73.93;95133.03;1806388;79;21114;-51
2021/05/09 00:55:22;;;;;;;13.03;8.68;;;;;;;1.64;74.07;95137.86;1806480;78;21105;-51
2021/05/09 00:57:49;;;;;;;12.00;9.05;;;;;;;1.67;73.88;95140.59;1777640;79;21144;-50
2021/05/09 01:00:19;;;;;;;10.60;8.05;;;;;;;1.66;74.09;95137.69;1777822;79;21038;-51
2021/05/09 01:02:46;;;;;;;15.30;8.80;;;;;;;1.66;73.81;95145.06;1806361;79;21182;-52
2021/05/09 01:05:15;;;;;;;11.63;8.93;;;;;;;1.65;73.84;95148.94;1806406;79;21187;-52
2021/05/09 01:07:43;;;;;;;27.17;10.30;;;;;;;1.64;74.17;95148.14;1806433;79;21026;-51
2021/05/09 01:10:14;;;;;;;20.50;10.28;;;;;;;1.69;74.11;95145.06;1806415;79;21101;-51
2021/05/09 01:12:42;;;;;;;13.72;8.68;;;;;;;1.68;74.17;95140.80;1777251;79;21593;-50
2021/05/09 01:15:12;;;;;;;10.60;8.78;;;;;;;1.64;74.11;95142.72;1806337;79;22429;-51
2021/05/09 01:17:40;;;;;;;13.88;9.28;;;;;;;1.58;73.96;95141.54;1806349;79;21117;-52
2021/05/09 01:20:21;;;;;;;11.97;9.70;;;;;;;1.53;73.98;95147.30;1806301;79;21133;-52
2021/05/09 01:22:49;;;;;;;13.85;10.32;;;;;;;1.50;74.03;95150.78;1806425;79;21196;-52
2021/05/09 01:25:18;;;;;;;15.93;11.10;;;;;;;1.52;74.23;95149.05;1806461;79;21062;-50
2021/05/09 01:27:46;;;;;;;12.68;9.38;;;;;;;1.51;74.33;95146.91;1806400;79;21258;-50
2021/05/09 01:30:16;;;;;;;13.62;9.83;;;;;;;1.51;74.77;95146.91;1806356;79;21172;-50
2021/05/09 01:32:44;;;;;;;14.38;9.85;;;;;;;1.52;74.70;95151.17;1777257;79;21081;-51
2021/05/09 01:35:13;;;;;;;14.93;9.50;;;;;;;1.54;74.76;95147.50;1806410;79;21140;-50
2021/05/09 01:37:41;;;;;;;13.93;9.13;;;;;;;1.53;74.73;95152.72;1806441;78;21097;-50
2021/05/09 01:40:12;;;;;;;11.38;9.43;;;;;;;1.49;74.77;95147.87;1806351;79;21379;-50
2021/05/09 01:42:41;;;;;;;12.33;9.48;;;;;;;1.46;74.97;95144.56;1806358;78;21152;-51
2021/05/09 01:45:09;;;;;;;14.07;9.80;;;;;;;1.49;75.00;95150.58;1806398;78;21081;-50
2021/05/09 01:47:38;;;;;;;13.30;9.10;;;;;;;1.49;75.00;95147.87;1806486;79;21478;-51
2021/05/09 01:50:13;;;;;;;14.80;10.88;;;;;;;1.48;75.13;95151.73;1806499;78;21503;-52
2021/05/09 01:52:41;;;;;;;21.60;14.25;;;;;;;1.40;75.17;95161.00;1806377;79;21262;-51
2021/05/09 01:55:13;;;;;;;22.82;13.50;;;;;;;1.34;75.43;95159.78;1806375;79;21236;-50
2021/05/09 01:57:42;;;;;;;14.15;9.70;;;;;;;1.32;75.53;95164.80;1806515;78;21129;-49
2021/05/09 02:00:18;;;;;;;18.60;11.50;;;;;;;1.30;75.62;95163.64;1806375;79;21467;-50
2021/05/09 02:02:48;;;;;;;17.95;11.65;;;;;;;1.27;75.80;95158.95;1805814;78;21073;-50
2021/05/09 02:05:18;;;;;;;18.55;11.25;;;;;;;1.23;76.00;95168.44;1806254;79;22422;-50
2021/05/09 02:07:46;;;;;;;20.77;12.93;;;;;;;1.27;76.34;95164.38;1806331;79;21077;-51
2021/05/09 02:10:15;;;;;;;18.73;12.80;;;;;;;1.29;76.34;95168.27;1806386;78;21062;-51
2021/05/09 02:12:43;;;;;;;29.95;18.25;;;;;;;1.32;76.45;95171.58;1806314;79;21082;-50
2021/05/09 02:15:13;;;;;;;28.95;19.67;;;;;;;1.38;76.32;95173.36;1804834;78;21098;-50
2021/05/09 02:17:43;;;;;;;22.30;15.00;;;;;;;1.41;76.28;95177.45;1777296;79;21197;-50
2021/05/09 02:20:14;;;;;;;23.22;14.85;;;;;;;1.48;76.27;95172.07;1805746;79;21613;-51
2021/05/09 02:22:44;;;;;;;31.90;17.00;;;;;;;1.51;76.05;95168.59;1805736;79;21069;-51
2021/05/09 02:25:12;;;;;;;22.77;14.63;;;;;;;1.52;76.19;95170.14;1806412;79;21192;-51
2021/05/09 02:27:41;;;;;;;15.75;12.53;;;;;;;1.55;76.28;95173.48;1806420;79;21173;-50
2021/05/09 02:30:11;;;;;;;16.30;11.97;;;;;;;1.62;76.22;95176.78;1806342;79;21346;-51
2021/05/09 02:32:39;;;;;;;18.35;13.05;;;;;;;1.63;76.06;95181.84;1777058;79;21243;-50
2021/05/09 02:35:09;;;;;;;17.12;12.93;;;;;;;1.63;75.95;95177.77;1806404;79;21078;-51
2021/05/09 02:37:37;;;;;;;15.20;9.95;;;;;;;1.61;76.02;95176.58;1806407;79;21050;-51
2021/05/09 02:40:06;;;;;;;15.25;10.03;;;;;;;1.62;76.06;95179.50;1806453;79;21066;-51
2021/05/09 02:42:35;;;;;;;14.25;9.85;;;;;;;1.63;76.14;95182.41;1806396;78;21236;-52
2021/05/09 02:45:06;;;;;;;13.48;8.28;;;;;;;1.60;76.11;95182.60;1806278;79;21124;-50
2021/05/09 02:47:34;;;;;;;13.28;10.45;;;;;;;1.56;76.24;95184.52;1806426;79;21037;-50
2021/05/09 02:50:09;;;;;;;19.70;12.63;;;;;;;1.52;76.36;95190.48;1805917;79;21085;-50
2021/05/09 02:52:39;;;;;;;21.73;14.13;;;;;;;1.51;76.44;95190.87;1806351;79;21148;-50
2021/05/09 02:55:10;;;;;;;22.55;12.03;;;;;;;1.50;76.62;95187.38;1806275;78;21176;-50
2021/05/09 02:57:39;;;;;;;16.57;12.28;;;;;;;1.53;76.55;95192.03;1806287;79;21081;-49
2021/05/09 03:00:08;;;;;;;14.68;11.90;;;;;;;1.59;76.74;95199.23;1806330;79;21073;-50
2021/05/09 03:02:37;;;;;;;16.85;12.10;;;;;;;1.63;76.46;95193.25;1806446;79;21073;-51
2021/05/09 03:05:10;;;;;;;21.45;12.90;;;;;;;1.66;76.40;95197.34;1806288;79;21030;-50
2021/05/09 03:07:38;;;;;;;17.07;12.18;;;;;;;1.68;76.27;95200.45;1806334;79;21240;-50
2021/05/09 03:10:09;;;;;;;28.30;17.00;;;;;;;1.63;76.26;95208.95;1806265;78;22383;-50
2021/05/09 03:12:36;;;;;;;28.32;18.05;;;;;;;1.58;76.42;95211.23;1806367;79;21081;-49
2021/05/09 03:15:07;;;;;;;25.72;16.15;;;;;;;1.55;76.68;95206.58;1806299;78;21062;-51
2021/05/09 03:17:35;;;;;;;50.03;23.73;;;;;;;1.58;76.73;95210.67;1806306;79;21066;-52
2021/05/09 03:20:05;;;;;;;52.50;25.90;;;;;;;1.60;76.56;95210.28;1806159;77;21159;-50
2021/05/09 03:22:32;;;;;;;56.13;28.70;;;;;;;1.57;76.55;95210.47;1796099;79;21216;-49
2021/05/09 03:25:00;;;;;;;50.67;26.45;;;;;;;1.55;76.55;95216.06;1780418;80;21144;-50
2021/05/09 03:27:28;;;;;;;39.08;22.45;;;;;;;1.50;76.58;95218.55;1796163;78;21061;-50
2021/05/09 03:29:56;;;;;;;40.48;19.73;;;;;;;1.47;76.72;95221.25;1796179;80;21069;-50
2021/05/09 03:32:25;;;;;;;35.60;20.27;;;;;;;1.47;76.85;95222.02;1796132;80;21190;-50
2021/05/09 03:34:54;;;;;;;33.40;18.77;;;;;;;1.48;76.94;95227.64;1796130;80;21490;-49
2021/05/09 03:37:23;;;;;;;37.78;20.57;;;;;;;1.50;76.83;95225.91;1796154;79;21522;-50
2021/05/09 03:39:51;;;;;;;29.25;18.17;;;;;;;1.44;76.89;95225.48;1796143;79;21124;-52
2021/05/09 03:42:19;;;;;;;31.30;18.23;;;;;;;1.43;77.10;95228.56;1796172;78;21152;-50
2021/05/09 03:44:47;;;;;;;16.60;11.70;;;;;;;1.43;77.19;95225.28;1796285;79;21139;-52
2021/05/09 03:47:15;;;;;;;17.10;11.08;;;;;;;1.46;77.20;95235.94;1796215;78;21065;-51
2021/05/09 03:49:43;;;;;;;22.17;15.08;;;;;;;1.50;76.99;95226.67;1796319;79;21128;-51
2021/05/09 03:52:11;;;;;;;30.25;17.35;;;;;;;1.55;77.07;95229.05;1796289;79;21125;-51
2021/05/09 03:54:39;;;;;;;28.92;18.60;;;;;;;1.60;76.99;95235.47;1796331;79;21144;-51
2021/05/09 03:57:07;;;;;;;32.25;19.90;;;;;;;1.64;77.03;95236.83;1796359;79;21346;-51
2021/05/09 03:59:38;;;;;;;28.67;16.52;;;;;;;1.67;77.06;95249.06;1796262;79;21093;-51
2021/05/09 04:02:06;;;;;;;21.25;13.00;;;;;;;1.72;77.04;95241.92;1796285;79;21078;-50
2021/05/09 04:04:34;;;;;;;18.57;13.32;;;;;;;1.74;76.91;95243.10;1796248;78;21053;-50
2021/05/09 04:07:03;;;;;;;27.60;15.08;;;;;;;1.76;76.72;95242.14;1796305;79;21537;-51
2021/05/09 04:09:32;;;;;;;26.15;16.27;;;;;;;1.77;76.73;95240.22;1796404;78;21189;-51
2021/05/09 04:12:00;;;;;;;33.70;16.35;;;;;;;1.81;76.79;95239.66;1796219;79;21125;-51
2021/05/09 04:14:28;;;;;;;19.05;13.32;;;;;;;1.89;76.92;95243.95;1796224;79;21053;-51
2021/05/09 04:16:57;;;;;;;20.23;11.85;;;;;;;2.00;76.93;95246.91;1796255;79;21088;-51
2021/05/09 04:19:25;;;;;;;27.25;16.42;;;;;;;2.11;76.85;95246.39;1796356;78;21522;-51
2021/05/09 04:21:54;;;;;;;29.80;16.45;;;;;;;2.20;76.63;95250.12;1802530;79;21333;-50
2021/05/09 04:24:22;;;;;;;21.60;15.63;;;;;;;2.24;76.44;95249.55;1806389;78;21133;-51
2021/05/09 04:26:50;;;;;;;15.00;12.23;;;;;;;2.29;76.39;95246.48;1806415;79;21101;-50
2021/05/09 04:29:18;;;;;;;15.28;10.38;;;;;;;2.37;76.03;95252.13;1806424;79;21121;-50
2021/05/09 04:31:46;;;;;;;16.02;12.30;;;;;;;2.44;75.69;95246.14;1806502;79;21082;-50
2021/05/09 04:34:14;;;;;;;19.32;13.70;;;;;;;2.47;75.62;95244.02;1806451;79;21314;-51
2021/05/09 04:36:42;;;;;;;18.23;12.40;;;;;;;2.58;75.62;95251.63;1806411;79;21546;-51
2021/05/09 04:39:10;;;;;;;34.45;15.83;;;;;;;2.72;75.51;95250.88;1806442;79;21102;-50
2021/05/09 04:41:38;;;;;;;33.30;15.75;;;;;;;2.78;75.27;95258.27;1806388;79;21054;-50
2021/05/09 04:44:06;;;;;;;24.60;14.40;;;;;;;2.88;75.37;95252.66;1806449;78;21066;-50
2021/05/09 04:46:34;;;;;;;18.23;13.10;;;;;;;2.99;75.06;95250.72;1777280;79;21141;-51
2021/05/09 04:49:03;;;;;;;31.90;11.88;;;;;;;3.09;74.65;95254.81;1806356;79;21153;-51
2021/05/09 04:51:32;;;;;;;22.02;12.65;;;;;;;3.17;74.33;95251.52;1806445;79;21133;-51
2021/05/09 04:54:00;;;;;;;15.68;10.23;;;;;;;3.22;74.10;95256.59;1806360;79;21164;-51
2021/05/09 04:56:28;;;;;;;14.28;11.03;;;;;;;3.26;73.88;95265.52;1806426;79;21169;-50
2021/05/09 04:58:57;;;;;;;15.13;10.93;;;;;;;3.22;73.71;95268.23;1806451;79;21461;-51
2021/05/09 05:01:25;;;;;;;18.32;11.45;;;;;;;3.27;73.58;95263.75;1806315;79;21855;-51
2021/05/09 05:03:53;;;;;;;12.82;9.60;;;;;;;3.37;73.34;95260.84;1806436;79;21109;-51
2021/05/09 05:06:21;;;;;;;13.65;11.12;;;;;;;3.48;73.26;95269.98;1806433;79;21150;-51
2021/05/09 05:08:50;;;;;;;17.57;13.28;;;;;;;3.53;73.09;95272.30;1806469;79;21157;-51
2021/05/09 05:11:18;;;;;;;14.90;12.00;;;;;;;3.62;73.12;95267.27;1806415;79;21191;-52
2021/05/09 05:13:48;;;;;;;16.32;10.75;;;;;;;3.78;72.91;95273.08;1806286;79;21057;-51
2021/05/09 05:16:17;;;;;;;12.63;8.80;;;;;;;3.96;72.49;95260.22;1806346;78;21014;-51
2021/05/09 05:18:45;;;;;;;10.78;8.20;;;;;;;4.12;71.69;95266.02;1806344;79;21070;-51
2021/05/09 05:21:13;;;;;;;14.43;8.68;;;;;;;4.26;71.18;95267.31;1806274;77;21277;-51
2021/05/09 05:23:42;;;;;;;12.40;9.45;;;;;;;4.37;70.39;95256.38;1806392;78;21381;-52
2021/05/09 05:26:10;;;;;;;13.72;10.32;;;;;;;4.42;69.86;95252.67;1806320;78;21570;-51
2021/05/09 05:28:38;;;;;;;9.43;7.17;;;;;;;4.48;69.75;95257.92;1806386;79;21050;-52
2021/05/09 05:31:07;;;;;;;9.90;7.47;;;;;;;4.52;69.34;95260.04;1806362;79;21077;-52
2021/05/09 05:33:36;;;;;;;14.30;8.80;;;;;;;4.59;68.68;95260.59;1806327;79;21065;-52
2021/05/09 05:36:06;;;;;;;15.18;9.63;;;;;;;4.64;68.55;95256.84;1777242;79;21327;-50
2021/05/09 05:38:34;;;;;;;10.88;8.75;;;;;;;4.72;68.33;95261.11;1806394;79;21074;-51
2021/05/09 05:41:02;;;;;;;10.60;7.85;;;;;;;4.82;68.07;95258.90;1806362;78;21186;-52
2021/05/09 05:43:31;;;;;;;11.25;7.55;;;;;;;4.96;67.57;95250.65;1806336;78;22078;-57
2021/05/09 05:46:00;;;;;;;16.48;7.83;;;;;;;5.11;67.32;95245.91;1806350;78;21176;-53
2021/05/09 05:48:29;;;;;;;22.27;8.58;;;;;;;5.24;66.74;95255.93;1806495;78;22104;-51
2021/05/09 05:50:59;;;;;;;21.17;8.00;;;;;;;5.29;66.37;95243.22;1806289;78;21058;-50
2021/05/09 05:53:29;;;;;;;11.28;8.40;;;;;;;5.37;66.14;95244.70;1806422;79;21064;-52
2021/05/09 05:55:57;;;;;;;16.90;9.80;;;;;;;5.49;66.00;95245.02;1806357;78;21509;-53
2021/05/09 05:58:25;;;;;;;12.00;8.53;;;;;;;5.58;65.89;95237.14;1806367;78;21065;-52
2021/05/09 06:00:53;;;;;;;16.02;8.98;;;;;;;5.78;65.37;95244.19;1806367;79;21201;-52
2021/05/09 06:03:23;;;;;;;11.28;8.63;;;;;;;5.92;64.87;95242.70;1806281;78;21168;-51
2021/05/09 06:05:54;;;;;;;9.75;8.03;;;;;;;6.05;64.67;95243.17;1806324;79;21109;-51
2021/05/09 06:08:22;;;;;;;11.95;8.03;;;;;;;6.27;64.18;95243.12;1806275;79;21117;-51
2021/05/09 06:10:50;;;;;;;7.53;6.72;;;;;;;6.42;63.31;95242.36;1806373;79;21193;-51
2021/05/09 06:13:22;;;;;;;8.60;7.12;;;;;;;6.51;62.59;95239.92;1806253;78;21161;-51
2021/05/09 06:15:51;;;;;;;8.85;6.25;;;;;;;6.59;62.04;95245.47;1806423;78;21165;-53
2021/05/09 06:18:19;;;;;;;14.00;5.37;;;;;;;6.69;61.32;95243.97;1806302;78;21093;-50
2021/05/09 06:20:47;;;;;;;8.10;5.40;;;;;;;6.82;60.94;95243.61;1806322;78;21058;-51
2021/05/09 06:23:24;;;;;;;8.78;5.97;;;;;;;7.02;60.51;95243.72;1806011;79;21121;-50
2021/05/09 06:25:51;;;;;;;11.88;6.65;;;;;;;7.18;60.08;95243.31;1806299;78;21136;-52
2021/05/09 06:28:19;;;;;;;9.50;5.90;;;;;;;7.28;59.52;95233.57;1806344;78;21628;-51
2021/05/09 06:30:48;;;;;;;5.90;5.03;;;;;;;7.38;59.28;95233.23;1806363;79;21095;-51
2021/05/09 06:33:16;;;;;;;10.38;4.95;;;;;;;7.51;58.85;95234.20;1806351;79;21094;-52
2021/05/09 06:35:44;;;;;;;9.10;5.05;;;;;;;7.64;58.49;95223.61;1806373;79;21053;-51
2021/05/09 06:38:12;;;;;;;5.95;5.03;;;;;;;7.80;58.17;95225.11;1806306;78;21382;-51
2021/05/09 06:40:42;;;;;;;5.40;4.70;;;;;;;7.95;57.62;95222.30;1806221;78;21862;-52
2021/05/09 06:43:10;;;;;;;7.33;4.40;;;;;;;8.07;57.44;95218.17;1806302;78;21132;-52
2021/05/09 06:45:38;;;;;;;6.80;4.58;;;;;;;8.24;57.27;95225.33;1806296;79;21054;-51
2021/05/09 06:48:07;;;;;;;4.87;4.40;;;;;;;8.41;56.75;95226.34;1806340;79;21098;-52
2021/05/09 06:50:36;;;;;;;7.62;4.83;;;;;;;8.57;56.34;95220.94;1806288;79;21190;-52
2021/05/09 06:53:04;;;;;;;8.05;4.60;;;;;;;8.72;56.38;95214.55;1806245;78;21180;-51
2021/05/09 06:55:34;;;;;;;5.97;4.75;;;;;;;8.91;56.05;95208.44;1806317;79;21109;-51
2021/05/09 06:58:09;;;;;;;7.47;4.70;;;;;;;9.14;54.96;95211.67;1806295;79;21157;-52
2021/05/09 07:00:34;;;;;;;6.20;4.00;;;;;;;9.34;54.67;95213.76;1806409;79;21074;-54
2021/05/09 07:03:03;;;;;;;5.53;4.35;;;;;;;9.45;54.05;95206.05;1806256;79;21354;-53
2021/05/09 07:05:31;;;;;;;5.67;4.58;;;;;;;9.55;53.94;95210.51;1806248;79;21589;-53
2021/05/09 07:08:00;;;;;;;8.28;4.55;;;;;;;9.71;53.26;95205.02;1806293;79;21201;-51
2021/05/09 07:10:28;;;;;;;10.55;4.95;;;;;;;9.86;52.71;95199.34;1806326;79;21065;-53
2021/05/09 07:12:57;;;;;;;5.87;4.72;;;;;;;10.04;53.03;95202.44;1777449;79;21144;-52
2021/05/09 07:15:28;;;;;;;12.43;5.12;;;;;;;10.27;52.91;95203.58;1806340;78;21194;-53
2021/05/09 07:18:08;;;;;;;5.78;5.17;;;;;;;10.49;51.70;95203.20;1806182;79;21089;-53
2021/05/09 07:20:36;;;;;;;7.72;4.50;;;;;;;10.66;50.65;95190.89;1806415;79;21570;-51
2021/05/09 07:23:06;;;;;;;5.78;5.08;;;;;;;10.82;50.18;95192.37;1799154;79;21033;-53
2021/05/09 07:25:35;;;;;;;5.00;4.47;;;;;;;10.98;48.92;95190.16;1796249;79;21073;-51
2021/05/09 07:28:06;;;;;;;8.53;4.17;;;;;;;11.18;49.11;95196.23;1796110;78;21185;-53
2021/05/09 07:30:35;;;;;;;9.58;4.90;;;;;;;11.37;47.96;95197.38;1796157;78;21116;-52
2021/05/09 07:33:04;;;;;;;5.90;4.83;;;;;;;11.53;47.28;95189.00;1796110;78;21121;-52
2021/05/09 07:35:32;;;;;;;8.23;4.00;;;;;;;11.67;47.12;95189.96;1796134;78;21117;-51
2021/05/09 07:38:05;;;;;;;9.38;4.20;;;;;;;11.89;46.83;95189.42;1796164;79;21144;-53
2021/05/09 07:40:33;;;;;;;10.08;4.08;;;;;;;12.13;46.04;95180.94;1796474;78;22119;-53
2021/05/09 07:43:03;;;;;;;8.43;4.78;;;;;;;12.36;45.66;95190.17;1794365;78;21199;-51
2021/05/09 07:45:33;;;;;;;7.08;5.65;;;;;;;12.62;44.61;95179.95;1796116;80;21144;-53
2021/05/09 07:48:01;;;;;;;9.65;5.10;;;;;;;12.83;42.88;95177.80;1796105;78;21113;-54
2021/05/09 07:50:30;;;;;;;6.25;3.90;;;;;;;12.99;42.09;95180.97;1796158;79;21160;-52
2021/05/09 07:52:59;;;;;;;7.83;3.12;;;;;;;13.16;40.37;95180.91;1796052;79;21206;-53
2021/05/09 07:55:28;;;;;;;7.00;4.85;;;;;;;13.33;40.89;95194.06;1796031;80;21088;-52
2021/05/09 07:57:56;;;;;;;5.53;3.90;;;;;;;13.54;40.10;95182.77;1796094;80;21057;-53
2021/05/09 08:00:25;;;;;;;5.28;4.45;;;;;;;13.71;39.39;95180.70;1796053;80;21837;-52
2021/05/09 08:02:53;;;;;;;5.15;3.27;;;;;;;13.82;39.45;95176.87;1796234;78;21100;-55
2021/05/09 08:05:23;;;;;;;6.85;2.83;;;;;;;13.96;38.42;95181.07;1796116;78;21553;-53
2021/05/09 08:07:52;;;;;;;6.67;2.70;;;;;;;14.09;37.67;95178.32;1795997;78;21127;-53
2021/05/09 08:10:21;;;;;;;4.53;2.80;;;;;;;14.21;37.71;95178.05;1796172;79;21092;-52
2021/05/09 08:12:50;;;;;;;5.95;2.72;;;;;;;14.31;36.76;95165.75;1795966;80;21152;-52
2021/05/09 08:15:19;;;;;;;5.35;3.05;;;;;;;14.40;35.87;95167.15;1796235;78;21077;-55
2021/05/09 08:17:47;;;;;;;6.08;2.65;;;;;;;14.43;36.80;95174.68;1795860;80;21352;-52
2021/05/09 08:20:16;;;;;;;24.07;4.22;;;;;;;14.49;35.45;95173.45;1796007;79;21108;-55
2021/05/09 08:22:45;;;;;;;7.15;2.90;;;;;;;14.52;35.49;95184.98;1796092;79;21490;-53
2021/05/09 08:25:14;;;;;;;16.10;3.33;;;;;;;14.61;34.80;95188.52;1796193;79;21568;-52
2021/05/09 08:27:45;;;;;;;3.40;2.67;;;;;;;14.69;34.93;95180.07;1795329;79;21097;-52
2021/05/09 08:30:15;;;;;;;4.90;2.35;;;;;;;14.80;35.27;95182.38;1796132;78;22063;-55
2021/05/09 08:32:43;;;;;;;9.95;2.42;;;;;;;14.92;35.17;95180.81;1796111;79;21140;-52
2021/05/09 08:35:11;;;;;;;7.97;2.92;;;;;;;15.03;34.68;95182.46;1796174;79;21125;-53
2021/05/09 08:37:41;;;;;;;2.50;2.30;;;;;;;15.05;35.01;95177.86;1796217;79;21153;-52
2021/05/09 08:40:13;;;;;;;16.95;3.35;;;;;;;15.10;35.16;95183.55;1796330;79;21168;-52
2021/05/09 08:42:42;;;;;;;4.67;2.30;;;;;;;15.14;33.91;95171.67;1796105;79;21868;-52
2021/05/09 08:45:12;;;;;;;12.73;2.90;;;;;;;15.16;33.07;95180.28;1796144;79;21164;-53
2021/05/09 08:47:43;;;;;;;8.68;2.55;;;;;;;15.16;33.47;95176.13;1796322;79;21117;-52
2021/05/09 08:50:19;;;;;;;5.45;2.45;;;;;;;15.20;33.83;95175.34;1796249;79;21136;-54
2021/05/09 08:52:50;;;;;;;2.92;2.40;;;;;;;15.29;33.18;95176.75;1796284;79;21107;-56
2021/05/09 08:55:25;;;;;;;7.85;2.22;;;;;;;15.38;33.04;95172.55;1796242;79;21506;-52
2021/05/09 08:57:56;;;;;;;7.58;2.30;;;;;;;15.44;32.39;95171.30;1796115;78;21117;-53
2021/05/09 09:00:26;;;;;;;2.95;1.90;;;;;;;15.46;32.87;95177.92;1796223;78;21144;-52
2021/05/09 09:02:56;;;;;;;4.12;1.70;;;;;;;15.51;31.68;95182.83;1796353;78;21081;-54
2021/05/09 09:08:20;;;;;;;2.05;1.95;;;;;;;15.58;31.61;95167.22;1909982;74;22633;-54
2021/05/09 09:10:52;;;;;;;2.33;2.05;;;;;;;15.62;31.47;95168.45;1849929;77;21470;-53
2021/05/09 09:13:30;;;;;;;2.40;1.85;;;;;;;15.65;31.77;95172.45;1849877;77;21180;-53
2021/05/09 09:16:03;;;;;;;8.58;2.27;;;;;;;15.68;31.98;95178.44;1849886;77;21504;-53
2021/05/09 09:18:42;;;;;;;5.67;2.00;;;;;;;15.76;31.69;95171.30;1849771;77;20884;-52
2021/05/09 09:21:26;;;;;;;5.12;2.33;;;;;;;15.81;31.38;95169.30;1849791;77;21526;-51
2021/05/09 09:24:03;;;;;;;3.35;2.08;;;;;;;15.94;31.79;95180.92;1849954;77;21546;-54
2021/05/09 09:26:34;;;;;;;6.17;2.10;;;;;;;16.05;32.60;95172.84;1849439;77;22202;-53
2021/05/09 09:29:25;;;;;;;2.65;1.95;;;;;;;16.17;31.20;95169.08;1849729;77;20884;-54
2021/05/09 09:32:06;;;;;;;7.15;2.33;;;;;;;16.25;29.60;95168.86;1849870;77;21010;-53
2021/05/09 09:34:45;;;;;;;7.37;2.65;;;;;;;16.26;30.33;95169.00;1849861;77;21549;-53
2021/05/09 09:37:15;;;;;;;2.30;2.10;;;;;;;16.30;30.42;95169.59;1849837;77;21589;-55
2021/05/09 09:39:59;;;;;;;5.17;3.12;;;;;;;16.32;30.32;95176.82;1849880;77;22093;-53
2021/05/09 09:42:45;;;;;;;2.10;1.90;;;;;;;16.38;30.38;95179.14;1849755;77;21498;-52
2021/05/09 09:45:28;;;;;;;2.70;2.50;;;;;;;16.46;30.35;95171.37;1849770;77;21070;-55
2021/05/09 09:48:01;;;;;;;;;;;;;;;16.62;30.17;95163.20;1852436;77;21156;-56
2021/05/09 09:53:43;;;;;;;3.98;3.58;;;;;;;16.79;29.65;95178.97;1889952;76;22679;-53
2021/05/09 09:56:17;;;;;;;8.78;2.60;;;;;;;16.62;29.11;95172.93;1860891;77;21049;-54
2021/05/09 09:58:57;;;;;;;5.72;2.60;;;;;;;16.50;30.72;95170.55;1860878;77;21228;-54
2021/05/09 10:01:29;;;;;;;3.70;3.30;;;;;;;16.50;29.33;95163.61;1860976;77;21144;-54
2021/05/09 10:04:07;;;;;;;2.40;2.20;;;;;;;16.55;29.77;95169.14;1860367;77;21069;-55
2021/05/09 10:06:39;;;;;;;3.62;2.37;;;;;;;16.68;30.36;95159.30;1832993;77;21568;-53
2021/05/09 10:09:08;;;;;;;4.67;2.52;;;;;;;16.89;29.32;95165.12;1827229;78;21096;-54
2021/05/09 10:11:38;;;;;;;5.58;2.50;;;;;;;17.05;30.37;95160.48;1827107;78;21163;-52
2021/05/09 10:14:07;;;;;;;4.00;2.10;;;;;;;17.19;28.90;95164.52;1827048;78;21116;-53
2021/05/09 10:16:38;;;;;;;3.67;2.58;;;;;;;17.30;28.55;95159.91;1827150;78;21568;-54
2021/05/09 10:19:11;;;;;;;3.22;2.92;;;;;;;17.46;28.33;95163.62;1795564;78;21560;-53
2021/05/09 10:21:40;;;;;;;4.58;1.90;;;;;;;17.64;27.79;95167.58;1827324;78;21132;-52
2021/05/09 10:24:17;;;;;;;9.45;3.02;;;;;;;17.84;27.72;95166.88;1827135;78;21184;-53
2021/05/09 10:27:10;;;;;;;6.35;2.20;;;;;;;17.98;27.58;95164.69;1827120;78;21183;-53
2021/05/09 10:29:45;;;;;;;3.45;1.70;;;;;;;18.20;27.39;95159.56;1826982;78;21186;-53
2021/05/09 10:32:24;;;;;;;4.10;2.85;;;;;;;18.44;26.49;95153.82;1827051;78;21060;-53
2021/05/09 10:35:02;;;;;;;3.95;2.20;;;;;;;18.46;26.44;95147.88;1827139;78;21148;-51
2021/05/09 10:37:45;;;;;;;2.12;1.87;;;;;;;18.59;26.36;95158.67;1826855;78;21425;-53
2021/05/09 10:40:31;;;;;;;3.02;2.47;;;;;;;18.70;25.54;95160.98;1827035;78;21171;-54
2021/05/09 10:43:09;;;;;;;2.27;1.85;;;;;;;18.78;26.06;95146.74;1826157;78;21076;-55
2021/05/09 10:45:44;;;;;;;4.55;2.40;;;;;;;18.96;28.65;95144.25;1827197;78;21048;-53
2021/05/09 10:48:34;;;;;;;9.13;2.35;;;;;;;19.41;29.83;95150.44;1827075;78;21089;-54
2021/05/09 10:51:09;;;;;;;2.00;1.85;;;;;;;19.88;26.86;95156.14;1826551;78;22156;-54
2021/05/09 10:53:42;;;;;;;4.53;4.12;;;;;;;20.16;26.11;95147.34;1826987;78;21128;-55
2021/05/09 10:56:21;;;;;;;2.27;2.08;;;;;;;20.39;25.85;95153.93;1827401;78;21060;-53
2021/05/09 10:58:51;;;;;;;2.77;1.62;;;;;;;20.69;25.41;95150.12;1826987;78;21194;-53
2021/05/09 11:01:34;;;;;;;1.95;1.20;;;;;;;20.85;23.84;95141.83;1827140;78;21077;-54
2021/05/09 11:04:09;;;;;;;11.48;3.50;;;;;;;21.13;25.73;95139.84;1826904;78;22244;-54
2021/05/09 11:06:50;;;;;;;10.48;2.55;;;;;;;21.58;23.69;95142.06;1826384;77;21143;-54
2021/05/09 11:09:26;;;;;;;4.03;2.65;;;;;;;;;;1826511;78;21057;-55
2021/05/09 11:11:57;;;;;;;6.03;2.02;;;;;;;22.21;23.47;95141.78;1826549;78;21037;-55
2021/05/09 11:14:25;;;;;;;2.20;1.12;;;;;;;22.49;22.23;95143.14;1826603;78;21203;-55
2021/05/09 11:17:07;;;;;;;2.60;1.25;;;;;;;22.59;21.84;95140.94;1826511;78;21150;-54
2021/05/09 11:19:44;;;;;;;2.35;1.30;;;;;;;22.59;22.10;95136.73;1826417;78;21029;-55
2021/05/09 11:22:14;;;;;;;4.45;1.57;;;;;;;22.79;21.57;95135.61;1826564;78;21065;-55
2021/05/09 11:24:43;;;;;;;2.05;1.32;;;;;;;22.81;21.48;95135.22;1826612;78;21064;-54
2021/05/09 11:27:14;;;;;;;6.45;1.87;;;;;;;22.91;20.87;95132.26;1826573;78;21064;-53
2021/05/09 11:29:44;;;;;;;1.42;1.07;;;;;;;23.03;21.63;95128.09;1826530;78;21148;-54
2021/05/09 11:32:15;;;;;;;8.23;1.25;;;;;;;23.14;20.59;95123.86;1795644;78;21125;-56
2021/05/09 11:35:02;;;;;;;3.30;1.27;;;;;;;23.16;21.22;95124.09;1826617;78;21076;-54
2021/05/09 11:37:35;;;;;;;1.42;1.12;;;;;;;23.18;20.64;95120.78;1826542;78;21069;-55
2021/05/09 11:40:06;;;;;;;2.37;1.20;;;;;;;23.21;21.06;95116.27;1826527;78;21041;-54
2021/05/09 11:42:34;;;;;;;2.42;1.35;;;;;;;23.38;20.63;95119.73;1826487;78;21334;-59
2021/05/09 11:45:02;;;;;;;3.17;1.10;;;;;;;23.55;20.74;95116.81;1826417;78;20965;-54
2021/05/09 11:47:34;;;;;;;4.80;1.72;;;;;;;23.75;20.18;95114.33;1826487;78;21084;-57
2021/05/09 11:50:06;;;;;;;;;;;;;;;23.82;21.81;95113.00;1829269;78;21489;-55
2021/05/09 11:52:40;;;;;;;4.05;1.92;;;;;;;23.92;22.76;95117.03;1826083;78;20497;-54